Time;durP1;ratioP1;P1;durP2;ratioP2;P2;SDS_P1;SDS_P2;PMS_P1;PMS_P2;Temp;Humidity;BMP_temperature;BMP_pressure;BME280_temperature;BME280_humidity;BME280_pressure;Samples;Min_cycle;Max_cycle;Signal;HPM_P1;HPM_P2
2022/07/21 00:01:49;;;;;;;10.52;6.93;;;;;;;;;;5051213;28;20566;-56
2022/07/21 00:04:15;;;;;;;9.95;7.68;;;;;;;;;;5051641;28;20114;-57
2022/07/21 00:06:41;;;;;;;11.25;7.18;;;;;;;;;;5050776;28;20444;-57
2022/07/21 00:09:08;;;;;;;9.77;7.10;;;;;;;;;;5047176;28;20063;-56
2022/07/21 00:11:34;;;;;;;9.50;6.50;;;;;;;;;;5050979;28;20430;-57
2022/07/21 00:14:00;;;;;;;10.88;7.20;;;;;;;;;;5051626;28;20100;-56
2022/07/21 00:16:26;;;;;;;9.27;6.50;;;;;;;;;;5050852;28;20031;-48
2022/07/21 00:18:52;;;;;;;9.23;7.00;;;;;;;;;;5050960;28;20102;-56
2022/07/21 00:21:18;;;;;;;7.95;6.85;;;;;;;;;;5051728;28;20088;-57
2022/07/21 00:23:44;;;;;;;9.85;7.50;;;;;;;;;;5050921;28;20028;-56
2022/07/21 00:26:10;;;;;;;11.57;7.25;;;;;;;;;;5048481;28;20021;-56
2022/07/21 00:28:36;;;;;;;8.73;7.55;;;;;;;;;;5050652;28;20033;-54
2022/07/21 00:31:02;;;;;;;11.35;7.07;;;;;;;;;;5043468;28;20091;-56
2022/07/21 00:33:28;;;;;;;9.20;6.57;;;;;;;;;;5050918;28;20049;-48
2022/07/21 00:35:54;;;;;;;11.52;8.10;;;;;;;;;;5050767;28;20025;-56
2022/07/21 00:38:20;;;;;;;9.77;7.50;;;;;;;;;;5050185;28;20029;-57
2022/07/21 00:40:46;;;;;;;8.23;7.07;;;;;;;;;;5050559;28;20024;-57
2022/07/21 00:43:12;;;;;;;9.02;6.88;;;;;;;;;;5045836;28;20029;-57
2022/07/21 00:45:38;;;;;;;10.05;8.20;;;;;;;;;;5046056;28;20032;-57
2022/07/21 00:48:04;;;;;;;8.65;7.03;;;;;;;;;;5050671;28;20386;-57
2022/07/21 00:50:30;;;;;;;8.57;6.88;;;;;;;;;;5050268;28;20101;-50
2022/07/21 00:52:56;;;;;;;9.93;7.38;;;;;;;;;;5050680;28;20051;-57
2022/07/21 00:55:23;;;;;;;8.50;7.32;;;;;;;;;;5050861;28;20021;-57
2022/07/21 00:57:49;;;;;;;9.57;7.22;;;;;;;;;;5051489;28;20075;-56
2022/07/21 01:00:23;;;;;;;8.35;7.18;;;;;;;;;;5050992;28;20052;-56
2022/07/21 01:02:49;;;;;;;8.27;7.20;;;;;;;;;;5047364;28;20581;-57
2022/07/21 01:05:15;;;;;;;10.13;7.60;;;;;;;;;;5050992;28;20029;-57
2022/07/21 01:07:42;;;;;;;9.80;6.70;;;;;;;;;;5049116;28;20476;-57
2022/07/21 01:10:09;;;;;;;9.00;7.45;;;;;;;;;;5044516;28;20025;-56
2022/07/21 01:12:35;;;;;;;9.35;7.25;;;;;;;;;;5050467;28;20033;-57
2022/07/21 01:15:01;;;;;;;9.43;7.13;;;;;;;;;;5049360;28;20033;-56
2022/07/21 01:17:27;;;;;;;7.50;6.78;;;;;;;;;;5051181;28;20369;-57
2022/07/21 01:19:53;;;;;;;9.88;6.82;;;;;;;;;;5046869;28;20037;-57
2022/07/21 01:22:19;;;;;;;8.75;7.13;;;;;;;;;;5050799;28;20021;-57
2022/07/21 01:24:45;;;;;;;10.35;7.43;;;;;;;;;;5049759;28;20037;-57
2022/07/21 01:27:12;;;;;;;10.57;6.50;;;;;;;;;;5051009;28;20082;-57
2022/07/21 01:29:38;;;;;;;9.32;7.35;;;;;;;;;;5049962;28;20025;-57
2022/07/21 01:32:04;;;;;;;9.27;6.53;;;;;;;;;;5050884;28;20045;-57
2022/07/21 01:34:30;;;;;;;9.45;6.57;;;;;;;;;;5050156;28;20027;-50
2022/07/21 01:36:56;;;;;;;7.85;6.70;;;;;;;;;;5047747;28;20037;-57
2022/07/21 01:42:07;;;;;;;8.32;6.45;;;;;;;;;;5051029;28;20083;-57
2022/07/21 01:44:33;;;;;;;11.00;6.70;;;;;;;;;;5049818;28;20021;-54
2022/07/21 01:46:59;;;;;;;7.90;6.70;;;;;;;;;;5050474;28;20535;-58
2022/07/21 01:49:25;;;;;;;8.00;7.07;;;;;;;;;;5050223;28;20037;-56
2022/07/21 01:51:51;;;;;;;9.23;6.38;;;;;;;;;;5049728;28;20029;-57
2022/07/21 01:54:17;;;;;;;7.88;6.55;;;;;;;;;;5052208;28;20021;-57
2022/07/21 01:56:44;;;;;;;8.57;6.45;;;;;;;;;;5052767;28;20473;-57
2022/07/21 01:59:10;;;;;;;9.35;6.88;;;;;;;;;;5057192;28;20029;-57
2022/07/21 02:01:36;;;;;;;8.40;6.22;;;;;;;;;;5035649;28;20025;-57
2022/07/21 02:04:03;;;;;;;6.75;5.97;;;;;;;;;;5054005;28;20106;-56
2022/07/21 02:06:29;;;;;;;9.15;6.40;;;;;;;;;;5053668;28;20041;-56
2022/07/21 02:08:55;;;;;;;6.93;5.90;;;;;;;;;;5046506;28;20044;-56
2022/07/21 02:11:22;;;;;;;7.85;5.43;;;;;;;;;;5054030;28;20385;-57
2022/07/21 02:13:48;;;;;;;7.30;5.95;;;;;;;;;;5053448;28;20025;-57
2022/07/21 02:16:14;;;;;;;10.25;5.60;;;;;;;;;;5053689;28;20136;-57
2022/07/21 02:18:41;;;;;;;7.15;5.47;;;;;;;;;;5053323;28;20389;-57
2022/07/21 02:21:07;;;;;;;6.82;5.88;;;;;;;;;;5053346;28;20100;-57
2022/07/21 02:23:34;;;;;;;8.45;5.53;;;;;;;;;;5052863;28;20031;-50
2022/07/21 02:26:00;;;;;;;7.40;5.25;;;;;;;;;;5049748;28;20021;-57
2022/07/21 02:28:26;;;;;;;8.02;5.55;;;;;;;;;;5050918;28;20060;-57
2022/07/21 02:30:53;;;;;;;5.90;4.75;;;;;;;;;;5052779;28;20037;-57
2022/07/21 02:33:19;;;;;;;6.85;5.25;;;;;;;;;;5053837;28;20402;-57
2022/07/21 02:35:45;;;;;;;6.85;5.18;;;;;;;;;;5052140;28;20029;-57
2022/07/21 02:38:12;;;;;;;6.47;5.20;;;;;;;;;;5053702;28;20500;-57
2022/07/21 02:40:38;;;;;;;5.97;5.00;;;;;;;;;;5052830;28;20055;-56
2022/07/21 02:43:08;;;;;;;7.97;4.55;;;;;;;;;;5052943;28;20081;-57
2022/07/21 02:45:34;;;;;;;7.28;5.40;;;;;;;;;;5044432;28;20432;-51
2022/07/21 02:48:07;;;;;;;7.43;5.18;;;;;;;;;;5051588;28;20478;-57
2022/07/21 02:50:34;;;;;;;6.68;5.30;;;;;;;;;;5050595;28;20072;-49
2022/07/21 02:53:02;;;;;;;6.53;4.68;;;;;;;;;;5049473;28;20112;-57
2022/07/21 02:55:28;;;;;;;5.70;4.80;;;;;;;;;;5060374;28;20024;-57
2022/07/21 02:58:14;;;;;;;8.27;4.80;;;;;;;;;;5057596;28;20063;-57
2022/07/21 03:00:43;;;;;;;5.38;4.80;;;;;;;;;;5048456;28;20024;-58
2022/07/21 03:03:09;;;;;;;6.80;4.35;;;;;;;;;;5052225;28;20033;-57
2022/07/21 03:05:35;;;;;;;5.68;4.30;;;;;;;;;;5051967;28;20040;-50
2022/07/21 03:08:02;;;;;;;5.68;4.68;;;;;;;;;;5052476;28;20029;-57
2022/07/21 03:10:28;;;;;;;7.68;4.72;;;;;;;;;;5052912;28;20374;-57
2022/07/21 03:12:54;;;;;;;6.40;4.32;;;;;;;;;;5047241;28;20031;-57
2022/07/21 03:15:20;;;;;;;9.35;5.25;;;;;;;;;;5052670;28;20025;-57
2022/07/21 03:17:46;;;;;;;6.88;4.90;;;;;;;;;;5052191;28;20029;-57
2022/07/21 03:20:12;;;;;;;6.50;4.72;;;;;;;;;;5052692;28;20029;-55
2022/07/21 03:22:38;;;;;;;7.53;4.57;;;;;;;;;;5051924;28;20028;-53
2022/07/21 03:25:05;;;;;;;4.93;4.43;;;;;;;;;;5052737;28;20025;-55
2022/07/21 03:27:31;;;;;;;6.95;5.32;;;;;;;;;;5046863;28;20021;-54
2022/07/21 03:29:57;;;;;;;6.07;4.53;;;;;;;;;;5051896;28;20660;-55
2022/07/21 03:32:23;;;;;;;8.73;4.40;;;;;;;;;;5052616;28;20037;-54
2022/07/21 03:34:49;;;;;;;6.35;4.65;;;;;;;;;;5051094;28;20056;-53
2022/07/21 03:37:15;;;;;;;5.65;4.43;;;;;;;;;;5052342;28;20478;-53
2022/07/21 03:39:41;;;;;;;6.80;4.80;;;;;;;;;;5051765;28;20029;-54
2022/07/21 03:42:07;;;;;;;5.75;4.00;;;;;;;;;;5050428;28;20029;-55
2022/07/21 03:44:33;;;;;;;8.15;4.32;;;;;;;;;;5049415;28;20024;-55
2022/07/21 03:46:59;;;;;;;4.53;4.00;;;;;;;;;;5053565;28;20033;-54
2022/07/21 03:49:25;;;;;;;5.65;4.50;;;;;;;;;;5052674;28;20037;-55
2022/07/21 03:51:51;;;;;;;5.85;4.32;;;;;;;;;;5051074;28;20087;-53
2022/07/21 03:54:17;;;;;;;5.65;4.20;;;;;;;;;;5053256;28;20049;-53
2022/07/21 03:56:43;;;;;;;6.05;4.22;;;;;;;;;;5050942;28;20529;-54
2022/07/21 03:59:09;;;;;;;6.80;4.15;;;;;;;;;;5053128;28;20025;-53
2022/07/21 04:01:35;;;;;;;6.22;4.65;;;;;;;;;;5048804;28;21870;-48
2022/07/21 04:04:01;;;;;;;6.43;4.80;;;;;;;;;;5050488;28;20017;-53
2022/07/21 04:06:27;;;;;;;4.80;4.20;;;;;;;;;;5050655;28;20037;-55
2022/07/21 04:08:53;;;;;;;6.20;4.15;;;;;;;;;;5050741;28;20470;-56
2022/07/21 04:11:19;;;;;;;7.10;4.55;;;;;;;;;;5051629;28;20056;-56
2022/07/21 04:13:45;;;;;;;5.32;4.55;;;;;;;;;;5032689;28;20029;-56
2022/07/21 04:16:11;;;;;;;7.43;4.53;;;;;;;;;;5051761;28;20021;-56
2022/07/21 04:18:37;;;;;;;6.30;4.57;;;;;;;;;;5049302;28;20028;-49
2022/07/21 04:21:03;;;;;;;6.25;4.57;;;;;;;;;;5047924;28;20027;-56
2022/07/21 04:23:29;;;;;;;8.50;4.60;;;;;;;;;;5051553;28;20025;-55
2022/07/21 04:25:55;;;;;;;10.13;5.63;;;;;;;;;;5050350;28;20029;-56
2022/07/21 04:28:21;;;;;;;6.53;4.25;;;;;;;;;;5050991;28;20032;-55
2022/07/21 04:30:47;;;;;;;7.40;4.93;;;;;;;;;;5050943;28;20074;-55
2022/07/21 04:33:13;;;;;;;5.55;4.22;;;;;;;;;;5051608;28;20017;-56
2022/07/21 04:35:39;;;;;;;6.13;4.70;;;;;;;;;;5049250;28;20021;-48
2022/07/21 04:38:05;;;;;;;5.03;4.38;;;;;;;;;;5046164;28;20025;-56
2022/07/21 04:40:31;;;;;;;9.57;5.30;;;;;;;;;;5051764;28;20070;-56
2022/07/21 04:42:57;;;;;;;5.93;4.70;;;;;;;;;;5050181;28;20025;-55
2022/07/21 04:45:23;;;;;;;6.68;4.93;;;;;;;;;;5051309;28;20031;-55
2022/07/21 04:47:51;;;;;;;7.15;4.50;;;;;;;;;;5049799;28;20025;-55
2022/07/21 04:50:18;;;;;;;5.72;4.72;;;;;;;;;;5042454;28;20033;-56
2022/07/21 04:52:44;;;;;;;5.93;4.28;;;;;;;;;;5043769;28;20033;-57
2022/07/21 04:55:11;;;;;;;5.28;4.32;;;;;;;;;;5044908;28;20086;-56
2022/07/21 04:57:41;;;;;;;8.10;5.22;;;;;;;;;;5052024;28;20025;-56
2022/07/21 05:00:09;;;;;;;7.40;4.72;;;;;;;;;;5050187;28;20028;-52
2022/07/21 05:02:35;;;;;;;5.25;4.53;;;;;;;;;;5051103;28;20091;-55
2022/07/21 05:05:01;;;;;;;7.80;4.90;;;;;;;;;;5050003;28;20037;-55
2022/07/21 05:07:27;;;;;;;6.20;4.25;;;;;;;;;;5050624;28;20053;-57
2022/07/21 05:09:53;;;;;;;7.68;4.32;;;;;;;;;;5049973;28;20025;-58
2022/07/21 05:12:19;;;;;;;5.70;4.40;;;;;;;;;;5050503;28;20051;-56
2022/07/21 05:14:45;;;;;;;5.93;4.43;;;;;;;;;;5044365;28;20068;-56
2022/07/21 05:17:11;;;;;;;8.25;5.10;;;;;;;;;;5050986;28;20025;-56
2022/07/21 05:19:37;;;;;;;7.32;4.68;;;;;;;;;;5051019;28;20025;-57
2022/07/21 05:22:03;;;;;;;5.78;4.88;;;;;;;;;;5049556;28;20426;-57
2022/07/21 05:24:29;;;;;;;5.70;4.40;;;;;;;;;;5051099;28;20101;-57
2022/07/21 05:26:55;;;;;;;8.90;4.30;;;;;;;;;;5053684;28;20025;-57
2022/07/21 05:29:21;;;;;;;5.40;4.68;;;;;;;;;;5054724;28;20024;-59
2022/07/21 05:31:47;;;;;;;11.02;5.60;;;;;;;;;;5051955;28;20044;-57
2022/07/21 05:34:13;;;;;;;8.55;5.60;;;;;;;;;;5054341;28;20029;-57
2022/07/21 05:36:39;;;;;;;6.10;4.88;;;;;;;;;;5054852;28;20501;-57
2022/07/21 05:39:05;;;;;;;6.75;4.82;;;;;;;;;;5053507;28;20037;-57
2022/07/21 05:41:31;;;;;;;7.13;5.28;;;;;;;;;;5054465;28;20044;-57
2022/07/21 05:43:57;;;;;;;6.55;4.75;;;;;;;;;;5053473;28;20171;-58
2022/07/21 05:46:23;;;;;;;7.85;5.07;;;;;;;;;;5054616;28;20510;-59
2022/07/21 05:48:49;;;;;;;7.25;4.68;;;;;;;;;;5050328;28;20021;-54
2022/07/21 05:51:15;;;;;;;7.07;4.63;;;;;;;;;;5053348;28;20040;-56
2022/07/21 05:53:41;;;;;;;8.05;5.25;;;;;;;;;;5051162;28;20147;-49
2022/07/21 05:56:07;;;;;;;6.07;5.47;;;;;;;;;;5053778;28;20100;-58
2022/07/21 05:58:36;;;;;;;5.93;5.05;;;;;;;;;;5057199;28;20063;-59
2022/07/21 06:01:08;;;;;;;7.32;5.15;;;;;;;;;;5053438;28;20473;-57
2022/07/21 06:03:37;;;;;;;6.28;5.47;;;;;;;;;;5054449;28;20032;-57
2022/07/21 06:06:03;;;;;;;7.55;4.80;;;;;;;;;;5056088;28;20053;-56
2022/07/21 06:08:29;;;;;;;8.18;5.10;;;;;;;;;;5050953;28;20378;-56
2022/07/21 06:10:55;;;;;;;6.10;5.25;;;;;;;;;;5051750;28;20029;-57
2022/07/21 06:13:21;;;;;;;8.18;5.43;;;;;;;;;;5053616;28;20031;-57
2022/07/21 06:15:47;;;;;;;7.05;6.13;;;;;;;;;;5052428;28;20025;-57
2022/07/21 06:18:14;;;;;;;8.50;5.20;;;;;;;;;;5053012;28;20025;-57
2022/07/21 06:20:40;;;;;;;13.27;5.75;;;;;;;;;;5051039;28;20029;-58
2022/07/21 06:23:06;;;;;;;8.25;5.38;;;;;;;;;;5054369;28;20032;-57
2022/07/21 06:25:32;;;;;;;7.07;5.22;;;;;;;;;;5053204;28;20078;-57
2022/07/21 06:27:58;;;;;;;7.22;5.47;;;;;;;;;;5051519;28;20017;-56
2022/07/21 06:30:25;;;;;;;6.40;5.40;;;;;;;;;;5050960;28;20551;-57
2022/07/21 06:32:50;;;;;;;9.00;6.22;;;;;;;;;;5054142;28;20021;-58
2022/07/21 06:35:16;;;;;;;8.23;5.20;;;;;;;;;;5054505;28;20482;-56
2022/07/21 06:37:46;;;;;;;7.88;5.70;;;;;;;;;;5052603;28;20036;-51
2022/07/21 06:40:12;;;;;;;6.55;4.72;;;;;;;;;;5051974;28;20365;-57
2022/07/21 06:42:38;;;;;;;6.63;5.20;;;;;;;;;;5046227;28;20082;-56
2022/07/21 06:45:04;;;;;;;6.40;4.70;;;;;;;;;;5046648;28;20104;-56
2022/07/21 06:47:30;;;;;;;5.32;4.45;;;;;;;;;;5052675;28;20028;-57
2022/07/21 06:50:02;;;;;;;6.18;4.72;;;;;;;;;;5052363;28;20033;-57
2022/07/21 06:52:28;;;;;;;6.75;4.72;;;;;;;;;;5052756;28;20082;-57
2022/07/21 06:54:53;;;;;;;5.15;4.00;;;;;;;;;;5045405;28;20017;-56
2022/07/21 06:57:19;;;;;;;5.93;4.60;;;;;;;;;;5053953;28;20449;-57
2022/07/21 06:59:45;;;;;;;7.72;4.97;;;;;;;;;;5052836;28;20068;-49
2022/07/21 07:02:11;;;;;;;6.85;4.60;;;;;;;;;;5054320;28;20028;-57
2022/07/21 07:04:38;;;;;;;8.90;5.22;;;;;;;;;;5052671;28;20373;-57
2022/07/21 07:07:04;;;;;;;7.30;4.35;;;;;;;;;;5051229;28;20071;-57
2022/07/21 07:09:29;;;;;;;4.47;4.05;;;;;;;;;;5053670;28;20464;-56
2022/07/21 07:12:03;;;;;;;5.60;4.70;;;;;;;;;;5051670;28;20074;-57
2022/07/21 07:14:29;;;;;;;5.82;4.55;;;;;;;;;;5052630;28;20176;-57
2022/07/21 07:16:55;;;;;;;6.18;5.00;;;;;;;;;;5051649;28;20036;-56
2022/07/21 07:19:21;;;;;;;5.93;4.45;;;;;;;;;;5052418;28;20024;-56
2022/07/21 07:21:47;;;;;;;5.18;4.07;;;;;;;;;;5051616;28;20409;-56
2022/07/21 07:24:13;;;;;;;5.38;4.70;;;;;;;;;;5052152;28;20033;-57
2022/07/21 07:26:39;;;;;;;6.50;4.63;;;;;;;;;;5052376;28;20028;-57
2022/07/21 07:29:05;;;;;;;5.13;4.40;;;;;;;;;;5051390;28;20055;-57
2022/07/21 07:31:31;;;;;;;6.53;5.15;;;;;;;;;;5052312;28;20025;-56
2022/07/21 07:33:57;;;;;;;5.40;4.32;;;;;;;;;;5051319;28;20032;-56
2022/07/21 07:36:24;;;;;;;7.32;4.28;;;;;;;;;;5051650;28;20032;-56
2022/07/21 07:38:51;;;;;;;5.85;4.13;;;;;;;;;;5051381;28;20041;-56
2022/07/21 07:41:17;;;;;;;5.95;4.43;;;;;;;;;;5051143;28;20025;-56
2022/07/21 07:43:43;;;;;;;4.65;4.15;;;;;;;;;;5052367;28;20024;-48
2022/07/21 07:46:10;;;;;;;5.90;4.97;;;;;;;;;;5050806;28;20488;-57
2022/07/21 07:48:37;;;;;;;6.93;4.57;;;;;;;;;;5051167;28;20025;-57
2022/07/21 07:51:03;;;;;;;5.18;4.10;;;;;;;;;;5050458;28;20637;-56
2022/07/21 07:53:29;;;;;;;5.90;4.32;;;;;;;;;;5052224;28;20043;-57
2022/07/21 07:55:55;;;;;;;6.35;4.70;;;;;;;;;;5050779;28;20078;-57
2022/07/21 07:58:22;;;;;;;5.57;4.35;;;;;;;;;;5053130;28;20028;-56
2022/07/21 08:00:48;;;;;;;7.03;4.70;;;;;;;;;;5050568;28;20100;-56
2022/07/21 08:03:14;;;;;;;4.57;4.05;;;;;;;;;;5051518;28;20539;-57
2022/07/21 08:05:40;;;;;;;6.95;4.30;;;;;;;;;;5050704;28;20394;-57
2022/07/21 08:08:06;;;;;;;5.50;4.13;;;;;;;;;;5050213;28;21753;-57
2022/07/21 08:10:32;;;;;;;4.60;4.07;;;;;;;;;;5051173;28;20048;-56
2022/07/21 08:12:58;;;;;;;6.93;4.10;;;;;;;;;;5050665;28;20100;-57
2022/07/21 08:15:24;;;;;;;6.78;4.45;;;;;;;;;;5051016;28;20442;-57
2022/07/21 08:17:50;;;;;;;8.32;3.88;;;;;;;;;;5049384;28;20025;-52
2022/07/21 08:20:16;;;;;;;6.05;4.35;;;;;;;;;;5033452;28;20474;-56
2022/07/21 08:22:42;;;;;;;6.57;4.20;;;;;;;;;;5051219;28;20033;-51
2022/07/21 08:25:08;;;;;;;5.38;4.25;;;;;;;;;;5050336;28;20079;-57
2022/07/21 08:27:34;;;;;;;5.03;3.88;;;;;;;;;;5052138;28;20029;-56
2022/07/21 08:30:00;;;;;;;5.30;4.15;;;;;;;;;;5052223;28;20033;-56
2022/07/21 08:32:26;;;;;;;6.20;4.22;;;;;;;;;;5050851;28;20052;-57
2022/07/21 08:34:52;;;;;;;6.93;4.57;;;;;;;;;;5049519;28;20493;-54
2022/07/21 08:37:22;;;;;;;6.47;4.05;;;;;;;;;;5056669;28;20032;-55
2022/07/21 08:39:48;;;;;;;4.30;3.60;;;;;;;;;;5050026;28;20524;-54
2022/07/21 08:42:14;;;;;;;5.82;3.58;;;;;;;;;;5050410;28;20521;-52
2022/07/21 08:44:40;;;;;;;6.57;3.67;;;;;;;;;;5044084;28;20355;-56
2022/07/21 08:47:07;;;;;;;5.20;4.13;;;;;;;;;;5080881;28;20043;-55
2022/07/21 08:49:34;;;;;;;5.20;3.78;;;;;;;;;;5057761;28;20020;-54
2022/07/21 08:52:01;;;;;;;4.60;3.85;;;;;;;;;;5047688;28;20385;-54
2022/07/21 08:54:27;;;;;;;4.57;3.72;;;;;;;;;;5051518;28;20021;-55
2022/07/21 08:56:54;;;;;;;5.70;4.00;;;;;;;;;;5050033;28;20029;-55
2022/07/21 08:59:20;;;;;;;5.25;3.67;;;;;;;;;;5051705;28;20025;-55
2022/07/21 09:01:46;;;;;;;6.10;4.07;;;;;;;;;;5054061;28;20078;-50
2022/07/21 09:04:22;;;;;;;4.93;3.97;;;;;;;;;;5056915;28;20017;-55
2022/07/21 09:06:58;;;;;;;6.53;3.88;;;;;;;;;;5053124;28;20037;-55
2022/07/21 09:09:24;;;;;;;6.13;4.03;;;;;;;;;;5055736;28;20112;-56
2022/07/21 09:11:51;;;;;;;4.70;3.78;;;;;;;;;;5053914;28;20107;-56
2022/07/21 09:14:19;;;;;;;4.00;3.60;;;;;;;;;;5054480;28;20048;-55
2022/07/21 09:16:46;;;;;;;5.20;4.15;;;;;;;;;;5053614;28;20028;-48
2022/07/21 09:19:23;;;;;;;4.80;4.13;;;;;;;;;;5054641;28;20028;-55
2022/07/21 09:21:50;;;;;;;5.63;3.60;;;;;;;;;;5053768;28;20083;-55
2022/07/21 09:24:42;;;;;;;5.30;3.72;;;;;;;;;;5046849;28;20028;-55
2022/07/21 09:27:10;;;;;;;3.88;3.38;;;;;;;;;;5048843;28;20087;-56
2022/07/21 09:29:54;;;;;;;4.82;3.55;;;;;;;;;;5053868;28;20044;-54
2022/07/21 09:32:22;;;;;;;4.55;3.88;;;;;;;;;;5054315;28;20041;-55
2022/07/21 09:34:52;;;;;;;4.38;3.60;;;;;;;;;;5052871;28;20029;-55
2022/07/21 09:37:19;;;;;;;5.28;3.25;;;;;;;;;;5052536;28;20021;-55
2022/07/21 09:39:50;;;;;;;3.42;3.10;;;;;;;;;;5053223;28;20036;-47
2022/07/21 09:42:26;;;;;;;3.88;3.42;;;;;;;;;;5054322;28;20104;-55
2022/07/21 09:44:55;;;;;;;3.30;2.85;;;;;;;;;;5053613;28;20052;-56
2022/07/21 09:47:22;;;;;;;4.28;3.45;;;;;;;;;;5053986;28;20025;-56
2022/07/21 09:49:48;;;;;;;3.95;3.53;;;;;;;;;;5053426;28;20024;-56
2022/07/21 09:52:21;;;;;;;6.35;3.30;;;;;;;;;;5053809;28;20039;-58
2022/07/21 09:54:47;;;;;;;4.28;3.47;;;;;;;;;;5052914;28;20025;-54
2022/07/21 09:57:14;;;;;;;5.25;3.50;;;;;;;;;;5053384;28;20032;-56
2022/07/21 09:59:43;;;;;;;5.00;3.35;;;;;;;;;;5047508;28;20029;-56
2022/07/21 10:02:11;;;;;;;6.45;3.70;;;;;;;;;;5055529;28;20056;-55
2022/07/21 10:04:38;;;;;;;3.97;3.03;;;;;;;;;;5056595;28;20020;-56
2022/07/21 10:07:04;;;;;;;3.90;3.47;;;;;;;;;;5053674;28;20037;-55
2022/07/21 10:09:30;;;;;;;4.18;3.50;;;;;;;;;;5054435;28;20025;-57
2022/07/21 10:11:56;;;;;;;3.95;3.10;;;;;;;;;;5052132;28;20036;-58
2022/07/21 10:14:22;;;;;;;4.65;3.30;;;;;;;;;;5053118;28;20025;-57
2022/07/21 10:16:48;;;;;;;4.97;3.22;;;;;;;;;;5052775;28;20033;-56
2022/07/21 10:19:27;;;;;;;3.80;3.25;;;;;;;;;;5054097;28;20108;-55
2022/07/21 10:21:53;;;;;;;3.90;3.45;;;;;;;;;;5049811;28;20033;-56
2022/07/21 10:24:19;;;;;;;4.43;3.33;;;;;;;;;;5053947;28;20025;-56
2022/07/21 10:27:02;;;;;;;3.92;3.20;;;;;;;;;;5054398;28;20114;-48
2022/07/21 10:29:52;;;;;;;6.68;3.28;;;;;;;;;;5053320;28;20029;-56
2022/07/21 10:32:22;;;;;;;4.32;3.22;;;;;;;;;;5054027;28;20442;-56
2022/07/21 10:34:48;;;;;;;4.25;3.15;;;;;;;;;;5053857;28;20033;-55
2022/07/21 10:37:33;;;;;;;7.15;3.22;;;;;;;;;;5055463;28;20028;-56
2022/07/21 10:39:59;;;;;;;3.78;3.17;;;;;;;;;;5052510;28;20056;-56
2022/07/21 10:42:25;;;;;;;3.47;2.75;;;;;;;;;;5054450;28;20033;-56
2022/07/21 10:44:51;;;;;;;4.65;2.92;;;;;;;;;;5054435;28;20053;-55
2022/07/21 10:47:21;;;;;;;4.55;3.03;;;;;;;;;;5064084;28;20099;-56
2022/07/21 10:49:54;;;;;;;4.40;3.00;;;;;;;;;;5047284;28;20039;-52
2022/07/21 10:52:39;;;;;;;4.95;2.90;;;;;;;;;;5052786;28;20021;-56
2022/07/21 10:55:11;;;;;;;5.25;3.22;;;;;;;;;;5054158;28;20028;-56
2022/07/21 10:57:38;;;;;;;3.75;2.90;;;;;;;;;;5057948;28;20025;-57
2022/07/21 11:00:21;;;;;;;3.72;2.85;;;;;;;;;;5059988;28;20059;-59
2022/07/21 11:02:48;;;;;;;4.47;2.38;;;;;;;;;;5052975;28;20115;-52
2022/07/21 11:05:14;;;;;;;5.82;3.30;;;;;;;;;;5051021;28;20227;-58
2022/07/21 11:07:59;;;;;;;3.75;2.90;;;;;;;;;;5039556;28;20517;-56
2022/07/21 11:10:26;;;;;;;3.90;2.97;;;;;;;;;;5052080;28;20045;-59
2022/07/21 11:12:55;;;;;;;3.60;2.63;;;;;;;;;;5051598;28;20035;-58
2022/07/21 11:15:40;;;;;;;3.40;2.92;;;;;;;;;;5049464;28;20029;-56
2022/07/21 11:18:06;;;;;;;4.57;2.85;;;;;;;;;;5051565;28;20091;-56
2022/07/21 11:20:32;;;;;;;4.13;2.53;;;;;;;;;;5060171;28;20021;-57
2022/07/21 11:23:02;;;;;;;3.42;2.83;;;;;;;;;;5050174;28;20043;-57
2022/07/21 11:25:29;;;;;;;3.97;2.58;;;;;;;;;;5051768;28;20043;-57
2022/07/21 11:27:55;;;;;;;5.43;2.65;;;;;;;;;;5051170;28;20040;-57
2022/07/21 11:30:21;;;;;;;3.28;2.78;;;;;;;;;;5051392;28;20108;-57
2022/07/21 11:32:47;;;;;;;2.90;2.55;;;;;;;;;;5052834;28;20090;-49
2022/07/21 11:35:14;;;;;;;2.92;2.45;;;;;;;;;;5051919;28;20029;-56
2022/07/21 11:37:42;;;;;;;3.33;2.30;;;;;;;;;;5055203;28;20163;-56
2022/07/21 11:40:12;;;;;;;4.97;2.60;;;;;;;;;;5051081;28;20029;-56
2022/07/21 11:42:38;;;;;;;3.88;2.72;;;;;;;;;;5052927;28;20032;-56
2022/07/21 11:45:04;;;;;;;2.63;2.20;;;;;;;;;;5051712;28;20618;-57
2022/07/21 11:47:30;;;;;;;3.75;2.58;;;;;;;;;;5052255;28;20035;-56
2022/07/21 11:49:58;;;;;;;3.03;2.22;;;;;;;;;;5050937;28;20104;-57
2022/07/21 11:52:28;;;;;;;3.78;2.67;;;;;;;;;;5050598;28;20363;-57
2022/07/21 11:54:55;;;;;;;4.55;3.00;;;;;;;;;;5050692;28;20100;-57
2022/07/21 11:57:22;;;;;;;2.90;2.50;;;;;;;;;;5051174;28;20099;-53
2022/07/21 11:59:49;;;;;;;5.20;2.58;;;;;;;;;;5050564;28;20033;-56
2022/07/21 12:02:15;;;;;;;3.58;2.47;;;;;;;;;;5052270;28;20029;-57
2022/07/21 12:04:44;;;;;;;3.63;2.70;;;;;;;;;;5050688;28;20089;-57
2022/07/21 12:07:16;;;;;;;3.13;2.83;;;;;;;;;;5050540;28;20041;-54
2022/07/21 12:09:43;;;;;;;4.43;2.45;;;;;;;;;;5046946;28;20377;-57
2022/07/21 12:12:11;;;;;;;3.10;2.80;;;;;;;;;;5051272;28;20079;-56
2022/07/21 12:14:41;;;;;;;3.67;2.70;;;;;;;;;;5052511;28;20033;-57
2022/07/21 12:17:07;;;;;;;3.10;2.10;;;;;;;;;;5050726;28;20725;-56
2022/07/21 12:19:34;;;;;;;3.63;2.80;;;;;;;;;;5049629;28;20025;-56
2022/07/21 12:22:00;;;;;;;2.53;2.33;;;;;;;;;;5047639;28;20539;-57
2022/07/21 12:24:46;;;;;;;3.35;2.65;;;;;;;;;;5050902;28;20029;-57
2022/07/21 12:27:12;;;;;;;4.03;2.65;;;;;;;;;;5050164;28;20029;-56
2022/07/21 12:29:38;;;;;;;2.88;2.42;;;;;;;;;;5058313;28;20405;-57
2022/07/21 12:32:05;;;;;;;2.90;2.60;;;;;;;;;;5054937;28;20033;-56
2022/07/21 12:34:31;;;;;;;3.90;2.50;;;;;;;;;;5050307;28;20381;-56
2022/07/21 12:36:58;;;;;;;5.05;2.60;;;;;;;;;;5052018;28;20029;-56
2022/07/21 12:42:11;;;;;;;3.53;2.67;;;;;;;;;;5048780;28;20028;-57
2022/07/21 12:44:38;;;;;;;2.60;2.40;;;;;;;;;;5051577;28;20025;-57
2022/07/21 12:47:33;;;;;;;2.65;2.42;;;;;;;;;;5050055;28;20159;-56
2022/07/21 12:50:01;;;;;;;2.58;2.20;;;;;;;;;;5034977;28;20127;-57
2022/07/21 12:52:28;;;;;;;3.28;2.38;;;;;;;;;;5050908;28;20021;-56
2022/07/21 12:54:54;;;;;;;4.22;2.70;;;;;;;;;;5052235;28;20313;-57
2022/07/21 12:57:20;;;;;;;2.83;2.58;;;;;;;;;;5050952;28;20382;-56
2022/07/21 12:59:46;;;;;;;3.47;2.40;;;;;;;;;;5049993;28;20033;-51
2022/07/21 13:02:12;;;;;;;3.30;2.70;;;;;;;;;;5050998;28;20021;-56
2022/07/21 13:04:38;;;;;;;2.75;2.15;;;;;;;;;;5050537;28;20104;-55
2022/07/21 13:07:04;;;;;;;2.80;2.50;;;;;;;;;;5049016;28;20121;-57
2022/07/21 13:09:30;;;;;;;2.70;2.50;;;;;;;;;;5049948;28;20404;-56
2022/07/21 13:11:57;;;;;;;3.42;2.83;;;;;;;;;;5050321;28;20036;-56
2022/07/21 13:14:23;;;;;;;2.63;2.33;;;;;;;;;;5050391;28;20029;-57
2022/07/21 13:16:49;;;;;;;2.58;2.38;;;;;;;;;;5049493;28;20029;-56
2022/07/21 13:19:15;;;;;;;3.28;2.20;;;;;;;;;;5050490;28;20404;-55
2022/07/21 13:21:41;;;;;;;2.90;2.60;;;;;;;;;;5042136;28;20025;-56
2022/07/21 13:24:07;;;;;;;2.80;2.28;;;;;;;;;;5049234;28;20095;-56
2022/07/21 13:26:33;;;;;;;3.90;3.25;;;;;;;;;;5050252;28;20033;-56
2022/07/21 13:29:02;;;;;;;2.47;2.28;;;;;;;;;;5049396;28;20055;-56
2022/07/21 13:31:28;;;;;;;3.03;2.33;;;;;;;;;;5050230;28;20031;-56
2022/07/21 13:33:54;;;;;;;5.60;2.63;;;;;;;;;;5048786;28;20029;-56
2022/07/21 13:36:20;;;;;;;2.35;2.10;;;;;;;;;;5054662;28;20021;-57
2022/07/21 13:38:46;;;;;;;3.28;2.30;;;;;;;;;;5047098;28;20103;-50
2022/07/21 13:41:14;;;;;;;2.50;2.08;;;;;;;;;;5049992;28;20035;-57
2022/07/21 13:43:40;;;;;;;3.10;2.58;;;;;;;;;;5047982;28;20025;-56
2022/07/21 13:46:06;;;;;;;2.55;2.15;;;;;;;;;;5050885;28;20028;-56
2022/07/21 13:48:32;;;;;;;3.53;2.60;;;;;;;;;;5054280;28;20025;-56
2022/07/21 13:50:58;;;;;;;2.83;2.55;;;;;;;;;;5053070;28;20029;-56
2022/07/21 13:53:24;;;;;;;2.47;2.20;;;;;;;;;;5054413;28;20029;-57
2022/07/21 13:55:53;;;;;;;3.80;2.67;;;;;;;;;;5054359;28;20031;-56
2022/07/21 13:58:19;;;;;;;2.63;2.40;;;;;;;;;;5050755;28;20016;-56
2022/07/21 14:00:45;;;;;;;3.40;3.00;;;;;;;;;;5053088;28;20036;-48
2022/07/21 14:03:14;;;;;;;4.38;2.67;;;;;;;;;;5053191;28;20082;-56
2022/07/21 14:05:40;;;;;;;3.55;2.53;;;;;;;;;;5050560;28;20056;-56
2022/07/21 14:08:06;;;;;;;3.67;2.30;;;;;;;;;;5052495;28;20024;-56
2022/07/21 14:10:33;;;;;;;5.38;2.97;;;;;;;;;;5051752;28;20036;-56
2022/07/21 14:12:59;;;;;;;3.97;2.30;;;;;;;;;;5053096;28;20025;-56
2022/07/21 14:15:25;;;;;;;3.88;2.55;;;;;;;;;;5053532;28;20504;-56
2022/07/21 14:17:51;;;;;;;4.07;2.53;;;;;;;;;;5049500;28;20039;-56
2022/07/21 14:20:17;;;;;;;2.50;2.13;;;;;;;;;;5053269;28;20025;-56
2022/07/21 14:22:43;;;;;;;2.78;2.25;;;;;;;;;;5045212;28;20453;-55
2022/07/21 14:25:18;;;;;;;3.83;2.45;;;;;;;;;;5050789;28;20517;-56
2022/07/21 14:27:44;;;;;;;2.80;2.33;;;;;;;;;;5045559;28;20118;-49
2022/07/21 14:30:10;;;;;;;4.20;2.67;;;;;;;;;;5053247;28;20040;-56
2022/07/21 14:32:36;;;;;;;3.10;2.25;;;;;;;;;;5053654;28;20029;-56
2022/07/21 14:35:02;;;;;;;2.53;2.33;;;;;;;;;;5049892;28;20036;-55
2022/07/21 14:37:28;;;;;;;3.22;2.40;;;;;;;;;;5049909;28;20021;-56
2022/07/21 14:39:54;;;;;;;2.78;2.22;;;;;;;;;;5051126;28;20029;-56
2022/07/21 14:42:23;;;;;;;3.47;2.60;;;;;;;;;;5053204;28;20466;-56
2022/07/21 14:44:49;;;;;;;3.63;2.90;;;;;;;;;;5041813;28;20053;-55
2022/07/21 14:47:15;;;;;;;2.35;2.13;;;;;;;;;;5053216;28;20067;-56
2022/07/21 14:49:41;;;;;;;2.20;2.03;;;;;;;;;;5055985;28;20469;-56